Disclaimer

Please do not use the information listed here in-flight or in-navigation, as they are not provided to us by the airports but are provided by volunteers, so they might be outdated.

Search


Regions


Airport information page

No radio frequency information is available.

Airport informations:
Latitude: 22° 10' 30.20" S
Longitude: 051° 25' 28.70" W
Elevation: 1477 feet - 450 meters
Operating hours: 24 hour operations
Operating agency: Civil government, landing fees and diplomatic clearance may be required
Timezone: UTC-3(-2DT)
Fuel: Jet A1, without icing nhibitor.

100/130 octane gasoline, leaded, MIL-L-5572F (GREEN)

Runway information:
12/30 - 6923 x 115 feet< - >2110 x 35 meters

Recent METARs:
SBDN 190400Z 08005KT CAVOK 20/18 Q1011
SBDN 190400Z 08005KT CAVOK 20/18 Q1011
SBDN 190500Z 00000KT 9999 SCT007 BKN100 20/18 Q1011

Airport on the map: